sensor_id;sensor_type;location;lat;lon;timestamp;temperature;humidity
32394;DHT22;18853;45.426;9.206;2022-10-31T00:00:57;20.90;57.60
32394;DHT22;18853;45.426;9.206;2022-10-31T00:03:23;20.80;57.60
32394;DHT22;18853;45.426;9.206;2022-10-31T00:05:49;20.80;57.60
32394;DHT22;18853;45.426;9.206;2022-10-31T00:08:16;20.80;57.70
32394;DHT22;18853;45.426;9.206;2022-10-31T00:10:43;20.80;57.70
32394;DHT22;18853;45.426;9.206;2022-10-31T00:13:10;20.70;57.70
32394;DHT22;18853;45.426;9.206;2022-10-31T00:15:37;20.70;57.70
32394;DHT22;18853;45.426;9.206;2022-10-31T00:18:04;20.70;57.70
32394;DHT22;18853;45.426;9.206;2022-10-31T00:20:30;20.70;57.80
32394;DHT22;18853;45.426;9.206;2022-10-31T00:23:00;20.70;57.90
32394;DHT22;18853;45.426;9.206;2022-10-31T00:25:26;20.60;57.90
32394;DHT22;18853;45.426;9.206;2022-10-31T00:27:52;20.60;57.90
32394;DHT22;18853;45.426;9.206;2022-10-31T00:30:18;20.60;58.00
32394;DHT22;18853;45.426;9.206;2022-10-31T00:32:43;20.60;58.00
32394;DHT22;18853;45.426;9.206;2022-10-31T00:35:09;20.60;58.00
32394;DHT22;18853;45.426;9.206;2022-10-31T00:37:35;20.60;58.00
32394;DHT22;18853;45.426;9.206;2022-10-31T00:40:00;20.60;58.10
32394;DHT22;18853;45.426;9.206;2022-10-31T00:42:26;20.50;58.20
32394;DHT22;18853;45.426;9.206;2022-10-31T00:44:52;20.50;58.20
32394;DHT22;18853;45.426;9.206;2022-10-31T00:47:17;20.50;58.40
32394;DHT22;18853;45.426;9.206;2022-10-31T00:49:43;20.50;58.50
32394;DHT22;18853;45.426;9.206;2022-10-31T00:52:09;20.50;58.60
32394;DHT22;18853;45.426;9.206;2022-10-31T00:54:34;20.50;58.70
32394;DHT22;18853;45.426;9.206;2022-10-31T00:57:00;20.50;58.80
32394;DHT22;18853;45.426;9.206;2022-10-31T00:59:25;20.50;58.90
32394;DHT22;18853;45.426;9.206;2022-10-31T01:01:51;20.50;58.90
32394;DHT22;18853;45.426;9.206;2022-10-31T01:04:17;20.50;58.90
32394;DHT22;18853;45.426;9.206;2022-10-31T01:06:42;20.40;59.00
32394;DHT22;18853;45.426;9.206;2022-10-31T01:09:08;20.40;58.90
32394;DHT22;18853;45.426;9.206;2022-10-31T01:11:34;20.40;59.00
32394;DHT22;18853;45.426;9.206;2022-10-31T01:13:59;20.40;59.00
32394;DHT22;18853;45.426;9.206;2022-10-31T01:16:26;20.40;59.10
32394;DHT22;18853;45.426;9.206;2022-10-31T01:18:53;20.40;59.10
32394;DHT22;18853;45.426;9.206;2022-10-31T01:21:19;20.40;59.20
32394;DHT22;18853;45.426;9.206;2022-10-31T01:23:45;20.40;59.20
32394;DHT22;18853;45.426;9.206;2022-10-31T01:26:20;20.40;59.40
32394;DHT22;18853;45.426;9.206;2022-10-31T01:28:56;20.30;59.30
32394;DHT22;18853;45.426;9.206;2022-10-31T01:31:25;20.30;59.40
32394;DHT22;18853;45.426;9.206;2022-10-31T01:33:51;20.30;59.40
32394;DHT22;18853;45.426;9.206;2022-10-31T01:38:52;20.20;59.20
32394;DHT22;18853;45.426;9.206;2022-10-31T01:41:21;20.20;59.30
32394;DHT22;18853;45.426;9.206;2022-10-31T01:43:57;20.20;59.30
32394;DHT22;18853;45.426;9.206;2022-10-31T01:48:53;20.20;59.30
32394;DHT22;18853;45.426;9.206;2022-10-31T01:51:22;20.20;59.30
32394;DHT22;18853;45.426;9.206;2022-10-31T01:53:50;20.20;59.30
32394;DHT22;18853;45.426;9.206;2022-10-31T01:56:18;20.20;59.90
32394;DHT22;18853;45.426;9.206;2022-10-31T01:58:46;20.20;59.30
32394;DHT22;18853;45.426;9.206;2022-10-31T02:01:13;20.20;59.30
32394;DHT22;18853;45.426;9.206;2022-10-31T02:03:40;20.20;59.40
32394;DHT22;18853;45.426;9.206;2022-10-31T02:06:10;20.20;59.40
32394;DHT22;18853;45.426;9.206;2022-10-31T02:08:39;20.20;59.40
32394;DHT22;18853;45.426;9.206;2022-10-31T02:11:06;20.20;59.40
32394;DHT22;18853;45.426;9.206;2022-10-31T02:13:33;20.20;59.40
32394;DHT22;18853;45.426;9.206;2022-10-31T02:15:59;20.10;59.40
32394;DHT22;18853;45.426;9.206;2022-10-31T02:18:28;20.10;59.30
32394;DHT22;18853;45.426;9.206;2022-10-31T02:21:11;20.10;59.30
32394;DHT22;18853;45.426;9.206;2022-10-31T02:34:39;20.00;59.10
32394;DHT22;18853;45.426;9.206;2022-10-31T02:37:37;20.10;59.10
32394;DHT22;18853;45.426;9.206;2022-10-31T02:40:17;20.00;59.10
32394;DHT22;18853;45.426;9.206;2022-10-31T02:45:44;20.00;59.30
32394;DHT22;18853;45.426;9.206;2022-10-31T02:48:20;20.00;59.30
32394;DHT22;18853;45.426;9.206;2022-10-31T02:50:59;20.00;59.30
32394;DHT22;18853;45.426;9.206;2022-10-31T02:53:25;20.00;59.30
32394;DHT22;18853;45.426;9.206;2022-10-31T02:55:59;20.00;59.20
32394;DHT22;18853;45.426;9.206;2022-10-31T02:58:28;20.00;59.20
32394;DHT22;18853;45.426;9.206;2022-10-31T03:11:36;19.90;59.00
32394;DHT22;18853;45.426;9.206;2022-10-31T03:14:12;19.90;58.90
32394;DHT22;18853;45.426;9.206;2022-10-31T03:19:23;19.90;58.90
32394;DHT22;18853;45.426;9.206;2022-10-31T03:21:55;19.80;58.80
32394;DHT22;18853;45.426;9.206;2022-10-31T03:24:25;19.80;58.80
32394;DHT22;18853;45.426;9.206;2022-10-31T03:26:57;19.80;58.80
32394;DHT22;18853;45.426;9.206;2022-10-31T03:29:35;19.80;58.70
32394;DHT22;18853;45.426;9.206;2022-10-31T03:32:29;19.70;58.70
32394;DHT22;18853;45.426;9.206;2022-10-31T03:34:59;19.80;58.60
32394;DHT22;18853;45.426;9.206;2022-10-31T03:37:28;19.70;58.80
32394;DHT22;18853;45.426;9.206;2022-10-31T03:39:56;19.70;58.80
32394;DHT22;18853;45.426;9.206;2022-10-31T03:42:29;19.70;58.50
32394;DHT22;18853;45.426;9.206;2022-10-31T03:45:15;19.70;58.50
32394;DHT22;18853;45.426;9.206;2022-10-31T03:47:43;19.70;58.50
32394;DHT22;18853;45.426;9.206;2022-10-31T03:50:10;19.60;58.60
32394;DHT22;18853;45.426;9.206;2022-10-31T03:52:47;19.60;58.60
32394;DHT22;18853;45.426;9.206;2022-10-31T04:00:22;19.60;58.50
32394;DHT22;18853;45.426;9.206;2022-10-31T04:03:11;19.50;58.60
32394;DHT22;18853;45.426;9.206;2022-10-31T04:05:38;19.50;58.60
32394;DHT22;18853;45.426;9.206;2022-10-31T04:08:08;19.50;58.70
32394;DHT22;18853;45.426;9.206;2022-10-31T04:10:37;19.50;58.70
32394;DHT22;18853;45.426;9.206;2022-10-31T04:13:08;19.50;58.80
32394;DHT22;18853;45.426;9.206;2022-10-31T04:15:35;19.50;58.90
32394;DHT22;18853;45.426;9.206;2022-10-31T04:18:04;19.50;59.00
32394;DHT22;18853;45.426;9.206;2022-10-31T04:20:38;19.50;59.20
32394;DHT22;18853;45.426;9.206;2022-10-31T04:23:04;19.50;59.30
32394;DHT22;18853;45.426;9.206;2022-10-31T04:25:30;19.40;59.30
32394;DHT22;18853;45.426;9.206;2022-10-31T04:27:56;19.40;59.30
32394;DHT22;18853;45.426;9.206;2022-10-31T04:30:22;19.40;59.30
32394;DHT22;18853;45.426;9.206;2022-10-31T04:32:47;19.40;59.20
32394;DHT22;18853;45.426;9.206;2022-10-31T04:35:13;19.30;59.20
32394;DHT22;18853;45.426;9.206;2022-10-31T04:37:39;19.30;59.20
32394;DHT22;18853;45.426;9.206;2022-10-31T04:40:05;19.30;59.20
32394;DHT22;18853;45.426;9.206;2022-10-31T04:42:31;19.30;59.10
32394;DHT22;18853;45.426;9.206;2022-10-31T04:44:57;19.30;59.20
32394;DHT22;18853;45.426;9.206;2022-10-31T04:47:23;19.30;59.10
32394;DHT22;18853;45.426;9.206;2022-10-31T04:49:48;19.30;59.10
32394;DHT22;18853;45.426;9.206;2022-10-31T04:52:14;19.30;59.20
32394;DHT22;18853;45.426;9.206;2022-10-31T04:54:40;19.20;59.20
32394;DHT22;18853;45.426;9.206;2022-10-31T04:59:36;19.30;59.20
32394;DHT22;18853;45.426;9.206;2022-10-31T05:02:02;19.20;59.20
32394;DHT22;18853;45.426;9.206;2022-10-31T05:04:27;19.20;59.20
32394;DHT22;18853;45.426;9.206;2022-10-31T05:06:53;19.10;59.20
32394;DHT22;18853;45.426;9.206;2022-10-31T05:09:19;19.10;59.20
32394;DHT22;18853;45.426;9.206;2022-10-31T05:11:44;19.10;59.20
32394;DHT22;18853;45.426;9.206;2022-10-31T05:14:10;19.10;59.20
32394;DHT22;18853;45.426;9.206;2022-10-31T05:16:35;19.10;59.20
32394;DHT22;18853;45.426;9.206;2022-10-31T05:19:01;19.10;59.20
32394;DHT22;18853;45.426;9.206;2022-10-31T05:21:27;19.10;59.10
32394;DHT22;18853;45.426;9.206;2022-10-31T05:23:52;19.10;59.00
32394;DHT22;18853;45.426;9.206;2022-10-31T05:26:18;19.10;58.90
32394;DHT22;18853;45.426;9.206;2022-10-31T05:28:44;19.10;58.80
32394;DHT22;18853;45.426;9.206;2022-10-31T05:31:09;19.00;58.80
32394;DHT22;18853;45.426;9.206;2022-10-31T05:33:35;19.00;58.80
32394;DHT22;18853;45.426;9.206;2022-10-31T05:36:01;19.00;58.80
32394;DHT22;18853;45.426;9.206;2022-10-31T05:38:26;19.00;58.80
32394;DHT22;18853;45.426;9.206;2022-10-31T05:40:55;19.00;58.80
32394;DHT22;18853;45.426;9.206;2022-10-31T05:43:23;19.00;58.70
32394;DHT22;18853;45.426;9.206;2022-10-31T05:45:52;19.00;58.80
32394;DHT22;18853;45.426;9.206;2022-10-31T05:48:18;19.00;58.80
32394;DHT22;18853;45.426;9.206;2022-10-31T05:50:44;18.90;58.90
32394;DHT22;18853;45.426;9.206;2022-10-31T05:53:09;18.90;58.90
32394;DHT22;18853;45.426;9.206;2022-10-31T05:55:35;18.90;58.90
32394;DHT22;18853;45.426;9.206;2022-10-31T05:58:01;19.00;59.00
32394;DHT22;18853;45.426;9.206;2022-10-31T06:00:27;18.90;59.10
32394;DHT22;18853;45.426;9.206;2022-10-31T06:03:01;18.90;59.10
32394;DHT22;18853;45.426;9.206;2022-10-31T06:05:27;18.90;58.90
32394;DHT22;18853;45.426;9.206;2022-10-31T06:07:53;18.90;59.00
32394;DHT22;18853;45.426;9.206;2022-10-31T06:10:18;18.90;59.00
32394;DHT22;18853;45.426;9.206;2022-10-31T06:12:46;18.90;58.90
32394;DHT22;18853;45.426;9.206;2022-10-31T06:15:12;18.90;59.20
32394;DHT22;18853;45.426;9.206;2022-10-31T06:17:37;18.90;58.90
32394;DHT22;18853;45.426;9.206;2022-10-31T06:20:04;18.90;58.90
32394;DHT22;18853;45.426;9.206;2022-10-31T06:22:30;18.90;58.90
32394;DHT22;18853;45.426;9.206;2022-10-31T06:24:55;18.90;58.90
32394;DHT22;18853;45.426;9.206;2022-10-31T06:27:21;18.90;58.90
32394;DHT22;18853;45.426;9.206;2022-10-31T06:29:47;18.90;58.90
32394;DHT22;18853;45.426;9.206;2022-10-31T06:32:13;18.90;59.60
32394;DHT22;18853;45.426;9.206;2022-10-31T06:34:40;18.90;59.10
32394;DHT22;18853;45.426;9.206;2022-10-31T06:37:08;18.90;59.30
32394;DHT22;18853;45.426;9.206;2022-10-31T06:39:34;19.00;59.90
32394;DHT22;18853;45.426;9.206;2022-10-31T06:41:59;19.10;60.30
32394;DHT22;18853;45.426;9.206;2022-10-31T06:44:25;19.10;60.70
32394;DHT22;18853;45.426;9.206;2022-10-31T06:46:51;19.10;61.90
32394;DHT22;18853;45.426;9.206;2022-10-31T06:49:16;19.20;61.10
32394;DHT22;18853;45.426;9.206;2022-10-31T06:51:42;19.30;61.00
32394;DHT22;18853;45.426;9.206;2022-10-31T06:54:08;19.30;60.80
32394;DHT22;18853;45.426;9.206;2022-10-31T06:56:34;19.30;59.90
32394;DHT22;18853;45.426;9.206;2022-10-31T06:59:00;19.30;59.00
32394;DHT22;18853;45.426;9.206;2022-10-31T07:01:26;19.20;58.70
32394;DHT22;18853;45.426;9.206;2022-10-31T07:03:52;19.20;58.40
32394;DHT22;18853;45.426;9.206;2022-10-31T07:06:17;19.20;58.30
32394;DHT22;18853;45.426;9.206;2022-10-31T07:08:43;19.20;58.20
32394;DHT22;18853;45.426;9.206;2022-10-31T07:11:08;19.20;58.20
32394;DHT22;18853;45.426;9.206;2022-10-31T07:13:34;19.10;58.20
32394;DHT22;18853;45.426;9.206;2022-10-31T07:16:02;19.10;58.30
32394;DHT22;18853;45.426;9.206;2022-10-31T07:18:28;19.10;58.40
32394;DHT22;18853;45.426;9.206;2022-10-31T07:20:54;19.10;58.70
32394;DHT22;18853;45.426;9.206;2022-10-31T07:23:20;19.10;58.90
32394;DHT22;18853;45.426;9.206;2022-10-31T07:25:46;19.10;59.20
32394;DHT22;18853;45.426;9.206;2022-10-31T07:28:12;19.20;59.40
32394;DHT22;18853;45.426;9.206;2022-10-31T07:30:38;19.20;59.70
32394;DHT22;18853;45.426;9.206;2022-10-31T07:33:04;19.20;59.70
32394;DHT22;18853;45.426;9.206;2022-10-31T07:35:31;19.30;59.90
32394;DHT22;18853;45.426;9.206;2022-10-31T07:37:57;19.30;59.90
32394;DHT22;18853;45.426;9.206;2022-10-31T07:40:23;19.40;60.10
32394;DHT22;18853;45.426;9.206;2022-10-31T07:42:50;19.40;60.10
32394;DHT22;18853;45.426;9.206;2022-10-31T07:45:19;19.40;60.10
32394;DHT22;18853;45.426;9.206;2022-10-31T07:47:52;19.50;60.20
32394;DHT22;18853;45.426;9.206;2022-10-31T07:50:22;19.50;60.30
32394;DHT22;18853;45.426;9.206;2022-10-31T07:53:01;19.50;60.30
32394;DHT22;18853;45.426;9.206;2022-10-31T07:55:28;19.60;60.30
32394;DHT22;18853;45.426;9.206;2022-10-31T07:58:14;19.70;60.10
32394;DHT22;18853;45.426;9.206;2022-10-31T08:00:42;19.80;60.00
32394;DHT22;18853;45.426;9.206;2022-10-31T08:03:11;19.80;60.00
32394;DHT22;18853;45.426;9.206;2022-10-31T08:05:37;19.80;60.10
32394;DHT22;18853;45.426;9.206;2022-10-31T08:08:04;19.90;60.00
32394;DHT22;18853;45.426;9.206;2022-10-31T08:10:31;19.90;59.90
32394;DHT22;18853;45.426;9.206;2022-10-31T08:13:11;20.00;59.80
32394;DHT22;18853;45.426;9.206;2022-10-31T08:15:37;20.00;60.00
32394;DHT22;18853;45.426;9.206;2022-10-31T08:18:14;20.00;59.90
32394;DHT22;18853;45.426;9.206;2022-10-31T08:20:41;20.10;60.10
32394;DHT22;18853;45.426;9.206;2022-10-31T08:23:09;20.10;60.20
32394;DHT22;18853;45.426;9.206;2022-10-31T08:25:35;20.20;60.30
32394;DHT22;18853;45.426;9.206;2022-10-31T08:28:01;20.20;60.30
32394;DHT22;18853;45.426;9.206;2022-10-31T08:30:29;20.20;60.10
32394;DHT22;18853;45.426;9.206;2022-10-31T08:33:08;20.30;60.00
32394;DHT22;18853;45.426;9.206;2022-10-31T08:35:34;20.30;60.00
32394;DHT22;18853;45.426;9.206;2022-10-31T08:38:00;20.30;60.00
32394;DHT22;18853;45.426;9.206;2022-10-31T08:40:29;20.40;60.10
32394;DHT22;18853;45.426;9.206;2022-10-31T08:43:06;20.40;60.20
32394;DHT22;18853;45.426;9.206;2022-10-31T08:45:34;20.50;59.90
32394;DHT22;18853;45.426;9.206;2022-10-31T08:48:01;20.50;60.20
32394;DHT22;18853;45.426;9.206;2022-10-31T08:50:29;20.50;60.20
32394;DHT22;18853;45.426;9.206;2022-10-31T08:53:03;20.50;60.10
32394;DHT22;18853;45.426;9.206;2022-10-31T08:55:29;20.60;60.20
32394;DHT22;18853;45.426;9.206;2022-10-31T08:57:56;20.50;60.10
32394;DHT22;18853;45.426;9.206;2022-10-31T09:00:22;20.60;60.30
32394;DHT22;18853;45.426;9.206;2022-10-31T09:02:47;20.60;60.70
32394;DHT22;18853;45.426;9.206;2022-10-31T09:05:13;20.70;60.70
32394;DHT22;18853;45.426;9.206;2022-10-31T09:07:39;20.60;60.70
32394;DHT22;18853;45.426;9.206;2022-10-31T09:10:05;20.60;60.60
32394;DHT22;18853;45.426;9.206;2022-10-31T09:12:30;20.70;60.50
32394;DHT22;18853;45.426;9.206;2022-10-31T09:14:56;20.70;60.40
32394;DHT22;18853;45.426;9.206;2022-10-31T09:17:22;20.70;60.40
32394;DHT22;18853;45.426;9.206;2022-10-31T09:19:48;20.80;60.30
32394;DHT22;18853;45.426;9.206;2022-10-31T09:22:14;20.80;60.50
32394;DHT22;18853;45.426;9.206;2022-10-31T09:24:39;20.80;60.50
32394;DHT22;18853;45.426;9.206;2022-10-31T09:27:05;20.80;60.30
32394;DHT22;18853;45.426;9.206;2022-10-31T09:29:30;20.90;60.60
32394;DHT22;18853;45.426;9.206;2022-10-31T09:31:56;20.90;59.60
32394;DHT22;18853;45.426;9.206;2022-10-31T09:34:22;20.90;59.50
32394;DHT22;18853;45.426;9.206;2022-10-31T09:36:48;21.00;59.50
32394;DHT22;18853;45.426;9.206;2022-10-31T09:39:13;21.00;59.60
32394;DHT22;18853;45.426;9.206;2022-10-31T09:50:03;21.10;59.00
32394;DHT22;18853;45.426;9.206;2022-10-31T09:52:34;21.20;59.00
32394;DHT22;18853;45.426;9.206;2022-10-31T09:55:26;21.20;59.10
32394;DHT22;18853;45.426;9.206;2022-10-31T09:57:53;21.30;58.60
32394;DHT22;18853;45.426;9.206;2022-10-31T10:00:21;21.30;58.70
32394;DHT22;18853;45.426;9.206;2022-10-31T10:02:53;21.40;58.40
32394;DHT22;18853;45.426;9.206;2022-10-31T10:05:27;21.50;58.60
32394;DHT22;18853;45.426;9.206;2022-10-31T10:08:10;21.50;58.40
32394;DHT22;18853;45.426;9.206;2022-10-31T10:24:37;21.60;57.30
32394;DHT22;18853;45.426;9.206;2022-10-31T10:29:47;21.70;57.00
32394;DHT22;18853;45.426;9.206;2022-10-31T10:32:28;21.70;56.80
32394;DHT22;18853;45.426;9.206;2022-10-31T10:34:58;21.80;57.30
32394;DHT22;18853;45.426;9.206;2022-10-31T10:37:31;21.80;57.00
32394;DHT22;18853;45.426;9.206;2022-10-31T10:40:27;21.80;57.00
32394;DHT22;18853;45.426;9.206;2022-10-31T10:49:57;21.90;56.40
32394;DHT22;18853;45.426;9.206;2022-10-31T10:52:42;21.90;56.20
32394;DHT22;18853;45.426;9.206;2022-10-31T10:55:23;22.10;56.40
32394;DHT22;18853;45.426;9.206;2022-10-31T10:58:02;22.00;56.20
32394;DHT22;18853;45.426;9.206;2022-10-31T11:03:00;22.10;55.50
32394;DHT22;18853;45.426;9.206;2022-10-31T11:05:51;22.20;55.70
32394;DHT22;18853;45.426;9.206;2022-10-31T11:13:36;22.30;54.90
32394;DHT22;18853;45.426;9.206;2022-10-31T11:16:07;22.30;55.10
32394;DHT22;18853;45.426;9.206;2022-10-31T11:18:40;22.40;54.70
32394;DHT22;18853;45.426;9.206;2022-10-31T11:21:27;22.50;54.60
32394;DHT22;18853;45.426;9.206;2022-10-31T11:26:34;22.80;53.90
32394;DHT22;18853;45.426;9.206;2022-10-31T11:29:01;22.80;53.50
32394;DHT22;18853;45.426;9.206;2022-10-31T11:31:29;23.00;52.80
32394;DHT22;18853;45.426;9.206;2022-10-31T11:34:00;23.10;52.50
32394;DHT22;18853;45.426;9.206;2022-10-31T11:36:29;23.20;52.30
32394;DHT22;18853;45.426;9.206;2022-10-31T11:38:55;23.30;51.50
32394;DHT22;18853;45.426;9.206;2022-10-31T11:43:57;23.40;50.50
32394;DHT22;18853;45.426;9.206;2022-10-31T11:46:38;23.40;50.50
32394;DHT22;18853;45.426;9.206;2022-10-31T11:49:06;23.40;50.50
32394;DHT22;18853;45.426;9.206;2022-10-31T11:51:36;23.40;50.20
32394;DHT22;18853;45.426;9.206;2022-10-31T11:54:03;23.40;50.20
32394;DHT22;18853;45.426;9.206;2022-10-31T11:56:41;23.50;50.20
32394;DHT22;18853;45.426;9.206;2022-10-31T11:59:22;23.50;50.20
32394;DHT22;18853;45.426;9.206;2022-10-31T12:01:49;23.60;50.10
32394;DHT22;18853;45.426;9.206;2022-10-31T12:04:16;23.70;50.00
32394;DHT22;18853;45.426;9.206;2022-10-31T12:06:43;23.80;49.50
32394;DHT22;18853;45.426;9.206;2022-10-31T12:09:21;23.80;49.40
32394;DHT22;18853;45.426;9.206;2022-10-31T12:17:18;23.80;49.60
32394;DHT22;18853;45.426;9.206;2022-10-31T12:23:11;24.10;49.90
32394;DHT22;18853;45.426;9.206;2022-10-31T12:26:00;24.20;49.70
32394;DHT22;18853;45.426;9.206;2022-10-31T12:36:51;24.80;48.40
32394;DHT22;18853;45.426;9.206;2022-10-31T12:42:14;25.00;47.70
32394;DHT22;18853;45.426;9.206;2022-10-31T12:45:00;25.20;47.40
32394;DHT22;18853;45.426;9.206;2022-10-31T12:48:04;25.30;46.40
32394;DHT22;18853;45.426;9.206;2022-10-31T12:53:13;25.60;46.50
32394;DHT22;18853;45.426;9.206;2022-10-31T13:01:22;25.90;46.00
32394;DHT22;18853;45.426;9.206;2022-10-31T13:06:46;26.20;45.50
32394;DHT22;18853;45.426;9.206;2022-10-31T13:09:17;26.20;45.30
32394;DHT22;18853;45.426;9.206;2022-10-31T13:11:51;26.20;45.50
32394;DHT22;18853;45.426;9.206;2022-10-31T13:14:26;26.20;45.40
32394;DHT22;18853;45.426;9.206;2022-10-31T13:16:55;26.10;45.00
32394;DHT22;18853;45.426;9.206;2022-10-31T13:19:41;26.20;44.70
32394;DHT22;18853;45.426;9.206;2022-10-31T13:22:18;26.40;43.70
32394;DHT22;18853;45.426;9.206;2022-10-31T13:25:15;26.60;42.80
32394;DHT22;18853;45.426;9.206;2022-10-31T13:27:49;26.80;41.90
32394;DHT22;18853;45.426;9.206;2022-10-31T13:30:39;26.80;41.70
32394;DHT22;18853;45.426;9.206;2022-10-31T13:38:32;27.30;41.70
32394;DHT22;18853;45.426;9.206;2022-10-31T13:43:42;27.70;42.40
32394;DHT22;18853;45.426;9.206;2022-10-31T13:46:34;27.80;41.10
32394;DHT22;18853;45.426;9.206;2022-10-31T13:49:00;28.00;41.20
32394;DHT22;18853;45.426;9.206;2022-10-31T13:51:29;28.10;40.80
32394;DHT22;18853;45.426;9.206;2022-10-31T14:01:25;28.70;40.60
32394;DHT22;18853;45.426;9.206;2022-10-31T14:04:23;28.80;40.60
32394;DHT22;18853;45.426;9.206;2022-10-31T14:06:59;29.00;40.00
32394;DHT22;18853;45.426;9.206;2022-10-31T14:09:36;29.10;39.80
32394;DHT22;18853;45.426;9.206;2022-10-31T14:12:14;29.10;39.90
32394;DHT22;18853;45.426;9.206;2022-10-31T14:14:49;29.20;39.90
32394;DHT22;18853;45.426;9.206;2022-10-31T14:17:25;29.30;40.00
32394;DHT22;18853;45.426;9.206;2022-10-31T14:20:01;29.40;38.90
32394;DHT22;18853;45.426;9.206;2022-10-31T14:22:31;29.40;38.70
32394;DHT22;18853;45.426;9.206;2022-10-31T14:24:58;29.30;39.10
32394;DHT22;18853;45.426;9.206;2022-10-31T14:29:52;29.30;39.10
32394;DHT22;18853;45.426;9.206;2022-10-31T14:32:22;29.20;39.00
32394;DHT22;18853;45.426;9.206;2022-10-31T14:34:54;29.30;38.90
32394;DHT22;18853;45.426;9.206;2022-10-31T14:48:44;28.60;39.60
32394;DHT22;18853;45.426;9.206;2022-10-31T14:51:20;28.60;38.70
32394;DHT22;18853;45.426;9.206;2022-10-31T14:53:51;28.60;38.40
32394;DHT22;18853;45.426;9.206;2022-10-31T14:56:27;28.50;38.90
32394;DHT22;18853;45.426;9.206;2022-10-31T14:58:55;28.60;39.20
32394;DHT22;18853;45.426;9.206;2022-10-31T15:03:51;28.70;39.60
32394;DHT22;18853;45.426;9.206;2022-10-31T15:06:20;28.70;40.20
32394;DHT22;18853;45.426;9.206;2022-10-31T15:08:55;28.90;39.60
32394;DHT22;18853;45.426;9.206;2022-10-31T15:11:26;28.90;39.10
32394;DHT22;18853;45.426;9.206;2022-10-31T15:13:56;28.90;39.10
32394;DHT22;18853;45.426;9.206;2022-10-31T15:16:26;28.90;39.10
32394;DHT22;18853;45.426;9.206;2022-10-31T15:18:56;28.80;38.50
32394;DHT22;18853;45.426;9.206;2022-10-31T15:21:24;28.80;39.40
32394;DHT22;18853;45.426;9.206;2022-10-31T15:23:59;28.80;39.50
32394;DHT22;18853;45.426;9.206;2022-10-31T15:26:38;28.80;39.90
32394;DHT22;18853;45.426;9.206;2022-10-31T15:29:15;28.70;40.10
32394;DHT22;18853;45.426;9.206;2022-10-31T15:31:51;28.50;40.20
32394;DHT22;18853;45.426;9.206;2022-10-31T15:34:38;28.40;40.40
32394;DHT22;18853;45.426;9.206;2022-10-31T15:37:08;28.30;40.50
32394;DHT22;18853;45.426;9.206;2022-10-31T15:39:35;28.10;40.80
32394;DHT22;18853;45.426;9.206;2022-10-31T15:42:01;27.90;41.40
32394;DHT22;18853;45.426;9.206;2022-10-31T15:44:30;27.70;41.80
32394;DHT22;18853;45.426;9.206;2022-10-31T15:47:04;27.60;42.90
32394;DHT22;18853;45.426;9.206;2022-10-31T15:49:41;27.40;42.70
32394;DHT22;18853;45.426;9.206;2022-10-31T15:52:33;27.20;42.90
32394;DHT22;18853;45.426;9.206;2022-10-31T15:55:22;27.10;43.20
32394;DHT22;18853;45.426;9.206;2022-10-31T15:57:53;26.90;43.50
32394;DHT22;18853;45.426;9.206;2022-10-31T16:00:27;26.70;43.60
32394;DHT22;18853;45.426;9.206;2022-10-31T16:05:46;26.50;43.90
32394;DHT22;18853;45.426;9.206;2022-10-31T16:13:33;26.20;44.50
32394;DHT22;18853;45.426;9.206;2022-10-31T16:16:04;26.10;44.40
32394;DHT22;18853;45.426;9.206;2022-10-31T16:18:37;26.00;44.60
32394;DHT22;18853;45.426;9.206;2022-10-31T16:21:04;25.90;44.50
32394;DHT22;18853;45.426;9.206;2022-10-31T16:23:31;25.90;44.60
32394;DHT22;18853;45.426;9.206;2022-10-31T16:25:57;25.80;44.70
32394;DHT22;18853;45.426;9.206;2022-10-31T16:28:26;25.80;44.80
32394;DHT22;18853;45.426;9.206;2022-10-31T16:30:54;25.70;45.00
32394;DHT22;18853;45.426;9.206;2022-10-31T16:33:36;25.60;45.00
32394;DHT22;18853;45.426;9.206;2022-10-31T16:36:32;25.60;44.90
32394;DHT22;18853;45.426;9.206;2022-10-31T16:38:58;25.50;44.80
32394;DHT22;18853;45.426;9.206;2022-10-31T16:41:24;25.40;45.20
32394;DHT22;18853;45.426;9.206;2022-10-31T16:43:51;25.40;45.30
32394;DHT22;18853;45.426;9.206;2022-10-31T16:46:23;25.40;45.40
32394;DHT22;18853;45.426;9.206;2022-10-31T16:48:50;25.40;45.50
32394;DHT22;18853;45.426;9.206;2022-10-31T16:51:16;25.30;45.60
32394;DHT22;18853;45.426;9.206;2022-10-31T16:53:41;25.30;45.80
32394;DHT22;18853;45.426;9.206;2022-10-31T16:56:15;25.30;45.90
32394;DHT22;18853;45.426;9.206;2022-10-31T16:58:42;25.20;45.90
32394;DHT22;18853;45.426;9.206;2022-10-31T17:01:08;25.20;46.00
32394;DHT22;18853;45.426;9.206;2022-10-31T17:03:35;25.10;46.00
32394;DHT22;18853;45.426;9.206;2022-10-31T17:06:01;25.10;46.10
32394;DHT22;18853;45.426;9.206;2022-10-31T17:08:26;25.10;46.10
32394;DHT22;18853;45.426;9.206;2022-10-31T17:10:55;25.10;46.10
32394;DHT22;18853;45.426;9.206;2022-10-31T17:13:26;25.10;46.20
32394;DHT22;18853;45.426;9.206;2022-10-31T17:15:55;25.00;46.20
32394;DHT22;18853;45.426;9.206;2022-10-31T17:18:21;25.00;46.40
32394;DHT22;18853;45.426;9.206;2022-10-31T17:20:47;24.90;46.50
32394;DHT22;18853;45.426;9.206;2022-10-31T17:23:14;24.90;46.70
32394;DHT22;18853;45.426;9.206;2022-10-31T17:25:41;24.80;46.80
32394;DHT22;18853;45.426;9.206;2022-10-31T17:28:11;24.70;46.80
32394;DHT22;18853;45.426;9.206;2022-10-31T17:30:39;24.70;47.00
32394;DHT22;18853;45.426;9.206;2022-10-31T17:33:05;24.70;47.10
32394;DHT22;18853;45.426;9.206;2022-10-31T17:35:30;24.70;47.00
32394;DHT22;18853;45.426;9.206;2022-10-31T17:37:56;24.70;46.90
32394;DHT22;18853;45.426;9.206;2022-10-31T17:40:22;24.70;46.90
32394;DHT22;18853;45.426;9.206;2022-10-31T17:42:56;24.70;46.80
32394;DHT22;18853;45.426;9.206;2022-10-31T17:45:23;24.70;46.70
32394;DHT22;18853;45.426;9.206;2022-10-31T17:47:51;24.60;46.90
32394;DHT22;18853;45.426;9.206;2022-10-31T17:50:21;24.60;47.00
32394;DHT22;18853;45.426;9.206;2022-10-31T17:52:47;24.50;47.30
32394;DHT22;18853;45.426;9.206;2022-10-31T17:55:14;24.50;47.40
32394;DHT22;18853;45.426;9.206;2022-10-31T17:57:40;24.40;47.50
32394;DHT22;18853;45.426;9.206;2022-10-31T18:00:10;24.40;47.60
32394;DHT22;18853;45.426;9.206;2022-10-31T18:02:36;24.40;47.70
32394;DHT22;18853;45.426;9.206;2022-10-31T18:05:03;24.30;47.80
32394;DHT22;18853;45.426;9.206;2022-10-31T18:07:30;24.30;47.90
32394;DHT22;18853;45.426;9.206;2022-10-31T18:09:56;24.30;48.00
32394;DHT22;18853;45.426;9.206;2022-10-31T18:12:22;24.30;47.90
32394;DHT22;18853;45.426;9.206;2022-10-31T18:14:47;24.20;47.90
32394;DHT22;18853;45.426;9.206;2022-10-31T18:17:13;24.20;48.10
32394;DHT22;18853;45.426;9.206;2022-10-31T18:19:39;24.10;48.10
32394;DHT22;18853;45.426;9.206;2022-10-31T18:22:05;24.10;48.30